createdAt,value
2023-01-17T00:00:00.011Z,98328.50
2023-01-17T00:02:31.672Z,98333.91
2023-01-17T00:05:19.328Z,98333.44
2023-01-17T00:08:07.505Z,98344.47
2023-01-17T00:10:41.798Z,98338.66
2023-01-17T00:13:12.001Z,98338.16
2023-01-17T00:15:41.671Z,98229.75
2023-01-17T00:18:13.846Z,98334.13
2023-01-17T00:21:01.235Z,98321.94
2023-01-17T00:23:57.015Z,98325.19
2023-01-17T00:26:27.215Z,98325.38
2023-01-17T00:28:55.724Z,98321.63
2023-01-17T00:31:24.513Z,98316.66
2023-01-17T00:33:54.273Z,98315.88
2023-01-17T00:36:22.970Z,98328.56
2023-01-17T00:38:51.676Z,98296.47
2023-01-17T00:41:19.787Z,98325.22
2023-01-17T00:44:06.111Z,98331.56
2023-01-17T00:46:55.730Z,98325.34
2023-01-17T00:49:46.322Z,98331.38
2023-01-17T00:52:33.704Z,98333.03
2023-01-17T00:55:24.140Z,98337.31
2023-01-17T00:58:11.714Z,98334.91
2023-01-17T01:00:59.770Z,98334.28
2023-01-17T01:03:47.425Z,98339.25
2023-01-17T01:06:35.771Z,98340.53
2023-01-17T01:09:24.001Z,98341.25
2023-01-17T01:12:11.193Z,98339.13
2023-01-17T01:14:58.830Z,98363.66
2023-01-17T01:17:46.687Z,98369.84
2023-01-17T01:20:34.867Z,98328.56
2023-01-17T01:23:25.287Z,98380.72
2023-01-17T01:26:13.180Z,98384.22
2023-01-17T01:29:00.647Z,98388.84
2023-01-17T01:31:47.642Z,98398.13
2023-01-17T01:34:17.561Z,98409.59
2023-01-17T01:36:47.456Z,98277.66
2023-01-17T01:39:18.964Z,98405.72
2023-01-17T01:41:48.821Z,98400.84
2023-01-17T01:44:57.450Z,98407.50
2023-01-17T01:47:32.268Z,98416.53
2023-01-17T01:50:03.309Z,98414.38
2023-01-17T01:52:35.873Z,98417.69
2023-01-17T01:55:09.605Z,98425.72
2023-01-17T01:57:43.978Z,98430.25
2023-01-17T02:00:18.216Z,98423.22
2023-01-17T02:02:51.186Z,98434.50
2023-01-17T02:05:23.790Z,98419.63
2023-01-17T02:07:57.205Z,98414.38
2023-01-17T02:10:29.626Z,98427.50
2023-01-17T02:12:59.846Z,98423.88
2023-01-17T02:15:34.471Z,98429.25
2023-01-17T02:18:14.318Z,98418.44
2023-01-17T02:21:20.290Z,98429.41
2023-01-17T02:24:23.293Z,98318.22
2023-01-17T02:27:01.387Z,98427.44
2023-01-17T02:30:22.241Z,98433.72
2023-01-17T02:33:15.515Z,98448.44
2023-01-17T02:35:55.266Z,98454.97
2023-01-17T02:38:35.457Z,98462.00
2023-01-17T02:41:09.522Z,98458.72
2023-01-17T02:43:39.648Z,98460.56
2023-01-17T02:46:09.967Z,98468.03
2023-01-17T02:48:41.322Z,98462.88
2023-01-17T02:51:47.079Z,98475.81
2023-01-17T02:54:43.078Z,98464.47
2023-01-17T02:57:31.717Z,98470.59
2023-01-17T03:00:11.335Z,98472.84
2023-01-17T03:02:49.183Z,98464.69
2023-01-17T03:05:25.007Z,98472.81
2023-01-17T03:07:56.679Z,98474.75
2023-01-17T03:10:26.585Z,98486.75
2023-01-17T03:12:59.170Z,98478.91
2023-01-17T03:15:29.609Z,98483.91
2023-01-17T03:18:03.620Z,98480.78
2023-01-17T03:20:34.741Z,98500.97
2023-01-17T03:23:04.365Z,98511.34
2023-01-17T03:25:34.154Z,98492.31
2023-01-17T03:28:04.073Z,98497.50
2023-01-17T03:30:36.001Z,98486.34
2023-01-17T03:33:05.757Z,98488.50
2023-01-17T03:35:36.764Z,98491.50
2023-01-17T03:38:06.642Z,98484.41
2023-01-17T03:40:36.315Z,98482.75
2023-01-17T03:43:05.940Z,98496.31
2023-01-17T03:45:36.471Z,98491.81
2023-01-17T03:48:06.764Z,98496.31
2023-01-17T03:50:37.627Z,98498.97
2023-01-17T03:53:07.756Z,98491.19
2023-01-17T03:55:38.357Z,98490.28
2023-01-17T03:58:08.749Z,98493.69
2023-01-17T04:00:38.283Z,98494.22
2023-01-17T04:03:10.746Z,98496.16
2023-01-17T04:05:41.981Z,98497.75
2023-01-17T04:08:12.046Z,98496.03
2023-01-17T04:10:41.653Z,98499.34
2023-01-17T04:13:11.181Z,98496.84
2023-01-17T04:15:41.254Z,98505.47
2023-01-17T04:18:13.127Z,98502.97
2023-01-17T04:20:44.306Z,98498.59
2023-01-17T04:23:16.915Z,98499.19
2023-01-17T04:25:49.383Z,98506.88
2023-01-17T04:28:19.072Z,98501.75
2023-01-17T04:30:49.021Z,98494.44
2023-01-17T04:33:19.560Z,98513.53
2023-01-17T04:35:50.314Z,98481.09
2023-01-17T04:38:20.590Z,98498.88
2023-01-17T04:40:51.044Z,98509.44
2023-01-17T04:43:20.992Z,98516.25
2023-01-17T04:45:56.776Z,98480.56
2023-01-17T04:48:27.431Z,98525.16
2023-01-17T04:51:02.214Z,98510.50
2023-01-17T04:53:31.129Z,98510.44
2023-01-17T04:56:00.232Z,98506.88
2023-01-17T04:58:28.969Z,98507.66
2023-01-17T05:01:01.732Z,98503.47
2023-01-17T05:03:33.257Z,98509.38
2023-01-17T05:06:04.141Z,98505.97
2023-01-17T05:08:33.319Z,98480.34
2023-01-17T05:11:03.390Z,98401.47
2023-01-17T05:13:32.510Z,98506.34
2023-01-17T05:16:01.695Z,98511.03
2023-01-17T05:18:30.541Z,98518.88
2023-01-17T05:21:03.792Z,98522.81
2023-01-17T05:23:33.132Z,98530.13
2023-01-17T05:26:02.292Z,98534.41
2023-01-17T05:28:31.486Z,98541.00
2023-01-17T05:31:00.394Z,98540.31
2023-01-17T05:33:29.305Z,98543.41
2023-01-17T05:35:58.226Z,98542.94
2023-01-17T05:38:30.968Z,98536.41
2023-01-17T05:41:05.780Z,98549.13
2023-01-17T05:43:34.839Z,98539.34
2023-01-17T05:46:04.293Z,98548.97
2023-01-17T05:48:33.180Z,98545.06
2023-01-17T05:51:02.657Z,98559.84
2023-01-17T05:53:33.064Z,98558.56
2023-01-17T05:56:01.951Z,98562.72
2023-01-17T05:58:30.873Z,98554.63
2023-01-17T06:01:02.617Z,98559.06
2023-01-17T06:03:31.470Z,98563.09
2023-01-17T06:06:00.913Z,98561.97
2023-01-17T06:08:29.952Z,98552.72
2023-01-17T06:11:01.347Z,98559.88
2023-01-17T06:13:30.814Z,98559.69
2023-01-17T06:16:04.275Z,98564.66
2023-01-17T06:18:34.888Z,98565.50
2023-01-17T06:21:04.651Z,98576.56
2023-01-17T06:23:33.564Z,98572.81
2023-01-17T06:26:05.744Z,98579.91
2023-01-17T06:28:34.684Z,98584.34
2023-01-17T06:31:07.458Z,98580.50
2023-01-17T06:33:36.500Z,98582.38
2023-01-17T06:36:05.977Z,98582.56
2023-01-17T06:38:35.241Z,98582.56
2023-01-17T06:41:09.016Z,98585.59
2023-01-17T06:43:38.080Z,98588.94
2023-01-17T06:46:07.131Z,98582.47
2023-01-17T06:48:36.115Z,98580.56
2023-01-17T06:51:05.453Z,98582.13
2023-01-17T06:53:34.703Z,98586.28
2023-01-17T06:56:04.651Z,98585.53
2023-01-17T06:58:35.909Z,98588.94
2023-01-17T07:01:08.254Z,98595.72
2023-01-17T07:03:37.909Z,98591.13
2023-01-17T07:06:09.641Z,98589.88
2023-01-17T07:08:38.954Z,98597.06
2023-01-17T07:11:09.170Z,98606.63
2023-01-17T07:13:39.721Z,98598.69
2023-01-17T07:16:11.101Z,98592.53
2023-01-17T07:18:39.895Z,98591.75
2023-01-17T07:21:14.792Z,98587.84
2023-01-17T07:23:45.742Z,98588.53
2023-01-17T07:26:14.777Z,98590.41
2023-01-17T07:28:45.248Z,98584.47
2023-01-17T07:31:14.274Z,98603.22
2023-01-17T07:33:43.223Z,98616.31
2023-01-17T07:36:12.712Z,98595.84
2023-01-17T07:38:43.962Z,98593.03
2023-01-17T07:41:15.873Z,98592.63
2023-01-17T07:43:46.596Z,98595.19
2023-01-17T07:46:15.601Z,98601.16
2023-01-17T07:48:44.835Z,98593.13
2023-01-17T07:51:14.211Z,98604.25
2023-01-17T07:53:43.782Z,98585.44
2023-01-17T07:56:12.526Z,98594.69
2023-01-17T07:58:41.468Z,98606.06
2023-01-17T08:01:14.143Z,98602.53
2023-01-17T08:03:43.581Z,98609.53
2023-01-17T08:06:18.598Z,98576.00
2023-01-17T08:08:48.439Z,98602.63
2023-01-17T08:11:17.362Z,98601.22
2023-01-17T08:13:46.584Z,98608.16
2023-01-17T08:16:16.938Z,98607.00
2023-01-17T08:18:45.866Z,98569.06
2023-01-17T08:21:17.042Z,98615.44
2023-01-17T08:23:49.102Z,98613.66
2023-01-17T08:26:22.675Z,98612.50
2023-01-17T08:28:57.019Z,98612.78
2023-01-17T08:31:28.340Z,98618.88
2023-01-17T08:33:58.313Z,98614.72
2023-01-17T08:36:28.782Z,98613.66
2023-01-17T08:38:57.810Z,98618.31
2023-01-17T08:41:28.744Z,98619.94
2023-01-17T08:43:59.907Z,98617.66
2023-01-17T08:46:32.136Z,98617.25
2023-01-17T08:49:02.947Z,98615.28
2023-01-17T08:51:33.225Z,98599.94
2023-01-17T08:54:02.669Z,98631.91
2023-01-17T08:56:31.454Z,98623.28
2023-01-17T08:59:00.296Z,98631.28
2023-01-17T09:01:30.582Z,98630.84
2023-01-17T09:03:59.806Z,98638.53
2023-01-17T09:06:31.217Z,98649.59
2023-01-17T09:09:03.228Z,98639.72
2023-01-17T09:11:32.641Z,98646.50
2023-01-17T09:14:02.025Z,98644.44
2023-01-17T09:16:33.514Z,98658.22
2023-01-17T09:19:02.526Z,98652.13
2023-01-17T09:21:31.399Z,98656.00
2023-01-17T09:24:00.286Z,98655.66
2023-01-17T09:26:31.800Z,98655.88
2023-01-17T09:29:00.786Z,98663.44
2023-01-17T09:31:31.143Z,98662.31
2023-01-17T09:33:59.956Z,98663.75
2023-01-17T09:36:32.195Z,98666.22
2023-01-17T09:39:02.083Z,98636.09
2023-01-17T09:41:32.970Z,98659.28
2023-01-17T09:44:07.661Z,98583.28
2023-01-17T09:46:44.648Z,98670.44
2023-01-17T09:49:25.229Z,98674.78
2023-01-17T09:51:55.111Z,98668.91
2023-01-17T09:54:26.262Z,98674.03
2023-01-17T09:57:02.656Z,98675.56
2023-01-17T09:59:45.619Z,98674.50
2023-01-17T10:02:42.162Z,98679.97
2023-01-17T10:05:29.655Z,98674.81
2023-01-17T10:08:16.350Z,98679.97
2023-01-17T10:10:55.145Z,98687.09
2023-01-17T10:13:39.132Z,98687.38
2023-01-17T10:16:19.521Z,98694.03
2023-01-17T10:19:11.095Z,98684.44
2023-01-17T10:21:56.266Z,98695.41
2023-01-17T10:25:07.424Z,98688.63
2023-01-17T10:27:39.850Z,98697.06
2023-01-17T10:30:18.875Z,98693.59
2023-01-17T10:32:51.002Z,98685.91
2023-01-17T10:35:27.144Z,98688.91
2023-01-17T10:37:59.634Z,98692.63
2023-01-17T10:40:37.291Z,98703.72
2023-01-17T10:43:13.525Z,98697.41
2023-01-17T10:45:50.111Z,98709.81
2023-01-17T10:48:30.900Z,98688.84
2023-01-17T10:51:11.624Z,98695.38
2023-01-17T10:53:59.453Z,98696.19
2023-01-17T10:56:31.242Z,98692.50
2023-01-17T10:59:17.158Z,98694.84
2023-01-17T11:01:46.242Z,98688.34
2023-01-17T11:04:21.626Z,98684.28
2023-01-17T11:07:12.680Z,98683.81
2023-01-17T11:09:43.785Z,98689.69
2023-01-17T11:12:32.081Z,98689.34
2023-01-17T11:15:17.887Z,98688.47
2023-01-17T11:17:53.363Z,98682.19
2023-01-17T11:20:29.112Z,98684.97
2023-01-17T11:23:13.717Z,98678.16
2023-01-17T11:25:50.953Z,98686.69
2023-01-17T11:28:23.770Z,98666.84
2023-01-17T11:30:54.725Z,98660.03
2023-01-17T11:33:45.532Z,98672.44
2023-01-17T11:36:19.756Z,98684.22
2023-01-17T11:39:03.063Z,98681.06
2023-01-17T11:41:36.818Z,98668.13
2023-01-17T11:44:23.708Z,98680.50
2023-01-17T11:47:19.342Z,98678.84
2023-01-17T11:49:50.448Z,98675.75
2023-01-17T11:52:25.529Z,98674.47
2023-01-17T11:54:56.969Z,98666.00
2023-01-17T11:57:28.806Z,98667.47
2023-01-17T12:00:12.020Z,98639.09
2023-01-17T12:03:08.725Z,98666.13
2023-01-17T12:05:53.711Z,98664.31
2023-01-17T12:08:38.480Z,98651.75
2023-01-17T12:11:17.101Z,98656.97
2023-01-17T12:14:02.812Z,98642.84
2023-01-17T12:16:58.464Z,98651.00
2023-01-17T12:19:48.967Z,98653.31
2023-01-17T12:22:34.189Z,98652.41
2023-01-17T12:25:24.505Z,98623.72
2023-01-17T12:28:12.666Z,98637.53
2023-01-17T12:31:02.184Z,98631.94
2023-01-17T12:33:43.823Z,98636.00
2023-01-17T12:36:19.375Z,98631.03
2023-01-17T12:38:50.384Z,98626.91
2023-01-17T12:41:23.501Z,98607.84
2023-01-17T12:43:56.713Z,98559.88
2023-01-17T12:46:32.090Z,98609.59
2023-01-17T12:49:05.740Z,98632.44
2023-01-17T12:51:40.938Z,98636.19
2023-01-17T12:54:20.180Z,98626.78
2023-01-17T12:56:53.715Z,98618.72
2023-01-17T12:59:31.306Z,98588.44
2023-01-17T13:02:02.503Z,98605.38
2023-01-17T13:04:57.004Z,98622.97
2023-01-17T13:07:36.871Z,98630.00
2023-01-17T13:10:20.552Z,98629.56
2023-01-17T13:12:51.413Z,98630.63
2023-01-17T13:15:28.635Z,98630.59
2023-01-17T13:18:09.542Z,98629.16
2023-01-17T13:20:56.526Z,98619.34
2023-01-17T13:23:30.695Z,98624.81
2023-01-17T13:26:02.376Z,98621.63
2023-01-17T13:28:44.944Z,98621.84
2023-01-17T13:31:30.504Z,98622.56
2023-01-17T13:34:28.594Z,98632.56
2023-01-17T13:37:13.073Z,98637.44
2023-01-17T13:40:00.305Z,98632.06
2023-01-17T13:42:40.276Z,98642.63
2023-01-17T13:45:10.326Z,98645.63
2023-01-17T13:47:43.847Z,98648.81
2023-01-17T13:50:47.840Z,98645.09
2023-01-17T13:53:59.344Z,98650.38
2023-01-17T13:56:33.896Z,98637.34
2023-01-17T13:59:33.203Z,98655.13
2023-01-17T14:02:03.035Z,98626.69
2023-01-17T14:05:12.380Z,98653.47
2023-01-17T14:07:48.330Z,98646.44
2023-01-17T14:10:27.879Z,98662.13
2023-01-17T14:12:57.521Z,98643.03
2023-01-17T14:15:28.535Z,98646.53
2023-01-17T14:18:34.222Z,98653.59
2023-01-17T14:21:15.092Z,98659.16
2023-01-17T14:24:04.950Z,98655.56
2023-01-17T14:26:38.575Z,98664.84
2023-01-17T14:29:46.885Z,98667.69
2023-01-17T14:32:18.957Z,98660.22
2023-01-17T14:34:50.219Z,98656.97
2023-01-17T14:37:29.188Z,98662.13
2023-01-17T14:39:58.919Z,98649.91
2023-01-17T14:42:30.657Z,98670.81
2023-01-17T14:45:03.227Z,98665.66
2023-01-17T14:47:35.074Z,98669.94
2023-01-17T14:50:12.148Z,98661.22
2023-01-17T14:52:45.600Z,98677.22
2023-01-17T14:55:17.971Z,98677.94
2023-01-17T14:57:55.983Z,98674.53
2023-01-17T15:00:29.335Z,98695.03
2023-01-17T15:03:01.023Z,98699.09
2023-01-17T15:05:31.476Z,98697.88
2023-01-17T15:08:02.720Z,98697.47
2023-01-17T15:10:34.133Z,98701.66
2023-01-17T15:13:10.380Z,98700.00
2023-01-17T15:15:42.058Z,98598.50
2023-01-17T15:18:23.219Z,98704.28
2023-01-17T15:20:57.153Z,98690.44
2023-01-17T15:23:34.888Z,98686.38
2023-01-17T15:26:05.780Z,98693.31
2023-01-17T15:28:36.535Z,98686.25
2023-01-17T15:31:15.470Z,98699.56
2023-01-17T15:33:47.171Z,98660.81
2023-01-17T15:36:27.302Z,98700.88
2023-01-17T15:39:01.583Z,98697.09
2023-01-17T15:41:34.770Z,98698.97
2023-01-17T15:44:04.630Z,98699.31
2023-01-17T15:46:41.710Z,98678.34
2023-01-17T15:49:19.552Z,98696.09
2023-01-17T15:51:51.558Z,98699.25
2023-01-17T15:54:36.001Z,98676.75
2023-01-17T15:57:18.795Z,98699.50
2023-01-17T15:59:54.516Z,98708.34
2023-01-17T16:02:43.174Z,98711.53
2023-01-17T16:05:42.030Z,98717.34
2023-01-17T16:08:38.691Z,98718.66
2023-01-17T16:11:12.163Z,98714.78
2023-01-17T16:13:43.247Z,98711.75
2023-01-17T16:16:22.285Z,98690.97
2023-01-17T16:19:00.011Z,98725.53
2023-01-17T16:21:31.189Z,98711.53
2023-01-17T16:24:01.421Z,98725.22
2023-01-17T16:26:35.183Z,98725.31
2023-01-17T16:29:04.468Z,98710.25
2023-01-17T16:31:34.043Z,98728.88
2023-01-17T16:34:03.063Z,98724.78
2023-01-17T16:36:32.021Z,98723.94
2023-01-17T16:39:00.835Z,98733.34
2023-01-17T16:41:30.976Z,98734.81
2023-01-17T16:44:02.765Z,98740.13
2023-01-17T16:46:32.846Z,98739.81
2023-01-17T16:49:02.316Z,98743.84
2023-01-17T16:51:31.271Z,98632.69
2023-01-17T16:54:01.834Z,98750.97
2023-01-17T16:56:32.328Z,98742.44
2023-01-17T16:59:02.272Z,98755.97
2023-01-17T17:01:31.393Z,98733.84
2023-01-17T17:04:03.440Z,98776.44
2023-01-17T17:06:32.828Z,98755.28
2023-01-17T17:09:01.805Z,98762.22
2023-01-17T17:11:32.583Z,98761.53
2023-01-17T17:14:04.119Z,98755.72
2023-01-17T17:16:34.177Z,98644.94
2023-01-17T17:19:07.432Z,98758.59
2023-01-17T17:21:38.837Z,98759.75
2023-01-17T17:24:08.027Z,98748.47
2023-01-17T17:26:39.439Z,98770.53
2023-01-17T17:29:10.829Z,98768.81
2023-01-17T17:31:41.160Z,98776.56
2023-01-17T17:34:13.313Z,98771.91
2023-01-17T17:36:43.080Z,98769.19
2023-01-17T17:39:14.857Z,98767.75
2023-01-17T17:41:48.291Z,98674.09
2023-01-17T17:44:17.597Z,98773.25
2023-01-17T17:46:49.490Z,98789.66
2023-01-17T17:49:19.084Z,98798.41
2023-01-17T17:51:48.362Z,98790.16
2023-01-17T17:54:18.819Z,98781.16
2023-01-17T17:56:49.349Z,98797.88
2023-01-17T17:59:19.732Z,98798.13
2023-01-17T18:01:49.485Z,98805.00
2023-01-17T18:04:18.790Z,98804.06
2023-01-17T18:06:47.830Z,98808.41
2023-01-17T18:09:16.755Z,98797.75
2023-01-17T18:11:46.038Z,98785.19
2023-01-17T18:14:17.839Z,98817.03
2023-01-17T18:16:47.770Z,98818.78
2023-01-17T18:19:19.403Z,98852.06
2023-01-17T18:21:50.405Z,98815.50
2023-01-17T18:24:22.134Z,98819.66
2023-01-17T18:26:52.296Z,98828.19
2023-01-17T18:29:24.302Z,98832.69
2023-01-17T18:31:54.843Z,98840.34
2023-01-17T18:34:27.303Z,98841.38
2023-01-17T18:36:57.750Z,98848.25
2023-01-17T18:39:29.495Z,98853.38
2023-01-17T18:41:58.958Z,98857.00
2023-01-17T18:44:30.270Z,98855.41
2023-01-17T18:47:02.201Z,98859.78
2023-01-17T18:49:32.692Z,98865.88
2023-01-17T18:52:02.531Z,98862.69
2023-01-17T18:54:32.042Z,98871.13
2023-01-17T18:57:01.096Z,98872.81
2023-01-17T18:59:31.629Z,98871.22
2023-01-17T19:02:00.711Z,98787.25
2023-01-17T19:04:31.951Z,98873.66
2023-01-17T19:07:03.556Z,98875.44
2023-01-17T19:09:33.615Z,98741.56
2023-01-17T19:12:02.527Z,98868.25
2023-01-17T19:14:32.731Z,98880.00
2023-01-17T19:17:02.034Z,98842.00
2023-01-17T19:19:31.117Z,98880.28
2023-01-17T19:22:02.312Z,98849.47
2023-01-17T19:24:31.734Z,98894.09
2023-01-17T19:27:00.532Z,98897.56
2023-01-17T19:29:33.403Z,98898.34
2023-01-17T19:32:02.485Z,98904.97
2023-01-17T19:34:31.307Z,98905.25
2023-01-17T19:37:00.462Z,98905.25
2023-01-17T19:39:31.253Z,98909.50
2023-01-17T19:42:00.837Z,98904.41
2023-01-17T19:44:32.835Z,98917.00
2023-01-17T19:47:07.473Z,98914.75
2023-01-17T19:49:36.855Z,98911.88
2023-01-17T19:52:05.951Z,98915.59
2023-01-17T19:54:35.409Z,98914.63
2023-01-17T19:57:04.329Z,98918.03
2023-01-17T19:59:34.787Z,98925.03
2023-01-17T20:02:04.257Z,98923.47
2023-01-17T20:04:34.029Z,98928.75
2023-01-17T20:07:03.333Z,98788.75
2023-01-17T20:09:32.539Z,98923.63
2023-01-17T20:12:01.984Z,98917.56
2023-01-17T20:14:30.787Z,98913.59
2023-01-17T20:17:01.251Z,98915.34
2023-01-17T20:19:30.300Z,98921.38
2023-01-17T20:21:59.329Z,98922.00
2023-01-17T20:24:28.699Z,98929.06
2023-01-17T20:26:58.343Z,98925.53
2023-01-17T20:29:30.016Z,98893.31
2023-01-17T20:32:00.637Z,98915.09
2023-01-17T20:34:31.526Z,98912.53
2023-01-17T20:37:02.571Z,98925.16
2023-01-17T20:39:32.831Z,98926.38
2023-01-17T20:42:04.195Z,98681.69
2023-01-17T20:44:34.525Z,98931.19
2023-01-17T20:47:05.661Z,98792.06
2023-01-17T20:49:34.517Z,98936.56
2023-01-17T20:52:06.018Z,98939.72
2023-01-17T20:54:36.031Z,98929.56
2023-01-17T20:57:05.249Z,98934.66
2023-01-17T20:59:33.949Z,98945.63
2023-01-17T21:02:03.093Z,98939.59
2023-01-17T21:04:34.222Z,98944.25
2023-01-17T21:07:05.426Z,98938.63
2023-01-17T21:09:34.511Z,98947.66
2023-01-17T21:12:03.293Z,98941.00
2023-01-17T21:14:32.282Z,98923.63
2023-01-17T21:17:01.512Z,98941.13
2023-01-17T21:19:30.653Z,98950.00
2023-01-17T21:22:01.880Z,98952.34
2023-01-17T21:24:30.868Z,98958.50
2023-01-17T21:27:00.943Z,98959.72
2023-01-17T21:29:32.041Z,98951.31
2023-01-17T21:32:02.394Z,98955.78
2023-01-17T21:34:32.153Z,98964.41
2023-01-17T21:37:02.427Z,98953.66
2023-01-17T21:39:32.273Z,98854.94
2023-01-17T21:42:01.545Z,98962.56
2023-01-17T21:44:36.744Z,98968.88
2023-01-17T21:47:06.239Z,98955.03
2023-01-17T21:49:34.998Z,98958.69
2023-01-17T21:52:20.631Z,98954.91
2023-01-17T21:55:06.975Z,98957.53
2023-01-17T21:57:54.688Z,98949.66
2023-01-17T22:00:24.822Z,98958.31
2023-01-17T22:02:53.986Z,98960.22
2023-01-17T22:05:23.359Z,98960.28
2023-01-17T22:08:16.788Z,98960.34
2023-01-17T22:10:48.070Z,98963.00
2023-01-17T22:13:18.913Z,98970.56
2023-01-17T22:16:00.016Z,98976.22
2023-01-17T22:18:29.872Z,98974.13
2023-01-17T22:20:58.861Z,98980.88
2023-01-17T22:23:31.184Z,98974.75
2023-01-17T22:26:05.116Z,98882.91
2023-01-17T22:28:34.920Z,98986.34
2023-01-17T22:31:11.123Z,98848.97
2023-01-17T22:33:42.252Z,98990.44
2023-01-17T22:36:14.639Z,98979.72
2023-01-17T22:38:46.829Z,98984.19
2023-01-17T22:41:20.637Z,98986.63
2023-01-17T22:43:53.153Z,98985.69
2023-01-17T22:46:25.131Z,98988.41
2023-01-17T22:48:55.533Z,98984.22
2023-01-17T22:51:27.803Z,98983.38
2023-01-17T22:54:01.031Z,98989.50
2023-01-17T22:56:32.229Z,99001.13
2023-01-17T22:59:03.216Z,99001.03
2023-01-17T23:01:35.008Z,98990.78
2023-01-17T23:04:06.011Z,98993.72
2023-01-17T23:06:37.548Z,98984.84
2023-01-17T23:09:12.060Z,98974.50
2023-01-17T23:11:44.613Z,98994.53
2023-01-17T23:14:17.074Z,98993.53
2023-01-17T23:17:06.355Z,98992.97
2023-01-17T23:19:37.753Z,98991.63
2023-01-17T23:22:17.614Z,98991.03
2023-01-17T23:24:52.092Z,98997.34
2023-01-17T23:27:41.382Z,98855.28
2023-01-17T23:30:15.182Z,98992.50
2023-01-17T23:32:48.954Z,98992.34
2023-01-17T23:35:20.449Z,98996.47
2023-01-17T23:38:07.992Z,98993.31
2023-01-17T23:40:40.957Z,98995.66
2023-01-17T23:43:25.919Z,98995.88
2023-01-17T23:45:56.230Z,98992.63
2023-01-17T23:48:27.696Z,98901.19
2023-01-17T23:51:02.523Z,98986.50
2023-01-17T23:53:32.001Z,98985.69
2023-01-17T23:56:08.093Z,98988.00
2023-01-17T23:58:38.008Z,98993.63
